sensor_id;sensor_type;location;lat;lon;timestamp;P1;durP1;ratioP1;P2;durP2;ratioP2
2712;SDS011;1366;47.988;7.856;2023-06-10T00:01:30;6.90;;;6.40;;
2712;SDS011;1366;47.988;7.856;2023-06-10T00:03:56;7.60;;;6.90;;
2712;SDS011;1366;47.988;7.856;2023-06-10T00:06:22;6.97;;;6.40;;
2712;SDS011;1366;47.988;7.856;2023-06-10T00:08:49;8.07;;;7.37;;
2712;SDS011;1366;47.988;7.856;2023-06-10T00:11:16;7.90;;;7.20;;
2712;SDS011;1366;47.988;7.856;2023-06-10T00:13:42;8.17;;;7.37;;
2712;SDS011;1366;47.988;7.856;2023-06-10T00:16:08;8.77;;;7.87;;
2712;SDS011;1366;47.988;7.856;2023-06-10T00:18:34;7.53;;;6.90;;
2712;SDS011;1366;47.988;7.856;2023-06-10T00:21:03;7.87;;;7.27;;
2712;SDS011;1366;47.988;7.856;2023-06-10T00:23:30;7.73;;;6.93;;
2712;SDS011;1366;47.988;7.856;2023-06-10T00:25:59;7.93;;;7.20;;
2712;SDS011;1366;47.988;7.856;2023-06-10T00:28:25;7.47;;;6.87;;
2712;SDS011;1366;47.988;7.856;2023-06-10T00:30:51;7.80;;;7.10;;
2712;SDS011;1366;47.988;7.856;2023-06-10T00:33:17;6.87;;;6.37;;
2712;SDS011;1366;47.988;7.856;2023-06-10T00:35:43;7.83;;;7.23;;
2712;SDS011;1366;47.988;7.856;2023-06-10T00:38:09;7.23;;;6.63;;
2712;SDS011;1366;47.988;7.856;2023-06-10T00:40:39;8.00;;;7.30;;
2712;SDS011;1366;47.988;7.856;2023-06-10T00:43:08;7.67;;;7.07;;
2712;SDS011;1366;47.988;7.856;2023-06-10T00:45:34;7.40;;;6.83;;
2712;SDS011;1366;47.988;7.856;2023-06-10T00:48:01;8.03;;;7.30;;
2712;SDS011;1366;47.988;7.856;2023-06-10T00:50:27;7.97;;;7.20;;
2712;SDS011;1366;47.988;7.856;2023-06-10T00:52:54;8.27;;;7.57;;
2712;SDS011;1366;47.988;7.856;2023-06-10T00:55:20;7.83;;;7.13;;
2712;SDS011;1366;47.988;7.856;2023-06-10T00:57:48;8.00;;;7.27;;
2712;SDS011;1366;47.988;7.856;2023-06-10T01:00:14;8.57;;;7.73;;
2712;SDS011;1366;47.988;7.856;2023-06-10T01:02:41;7.57;;;6.87;;
2712;SDS011;1366;47.988;7.856;2023-06-10T01:05:07;7.93;;;7.20;;
2712;SDS011;1366;47.988;7.856;2023-06-10T01:07:37;8.33;;;7.63;;
2712;SDS011;1366;47.988;7.856;2023-06-10T01:10:11;7.50;;;6.90;;
2712;SDS011;1366;47.988;7.856;2023-06-10T01:12:43;7.80;;;6.97;;
2712;SDS011;1366;47.988;7.856;2023-06-10T01:15:13;7.23;;;6.73;;
2712;SDS011;1366;47.988;7.856;2023-06-10T01:20:23;7.63;;;7.03;;
2712;SDS011;1366;47.988;7.856;2023-06-10T01:22:49;8.20;;;7.50;;
2712;SDS011;1366;47.988;7.856;2023-06-10T01:25:16;8.13;;;7.43;;
2712;SDS011;1366;47.988;7.856;2023-06-10T01:27:43;7.63;;;6.93;;
2712;SDS011;1366;47.988;7.856;2023-06-10T01:30:14;7.80;;;7.20;;
2712;SDS011;1366;47.988;7.856;2023-06-10T01:32:43;8.63;;;7.93;;
2712;SDS011;1366;47.988;7.856;2023-06-10T01:35:10;8.10;;;7.50;;
2712;SDS011;1366;47.988;7.856;2023-06-10T01:37:37;8.73;;;7.93;;
2712;SDS011;1366;47.988;7.856;2023-06-10T01:40:05;8.57;;;7.87;;
2712;SDS011;1366;47.988;7.856;2023-06-10T01:42:32;7.83;;;7.17;;
2712;SDS011;1366;47.988;7.856;2023-06-10T01:44:58;8.27;;;7.57;;
2712;SDS011;1366;47.988;7.856;2023-06-10T01:47:24;7.83;;;7.10;;
2712;SDS011;1366;47.988;7.856;2023-06-10T01:49:51;7.97;;;7.37;;
2712;SDS011;1366;47.988;7.856;2023-06-10T01:52:17;8.77;;;7.93;;
2712;SDS011;1366;47.988;7.856;2023-06-10T01:54:43;8.00;;;7.40;;
2712;SDS011;1366;47.988;7.856;2023-06-10T01:57:09;7.90;;;7.30;;
2712;SDS011;1366;47.988;7.856;2023-06-10T01:59:36;8.30;;;7.70;;
2712;SDS011;1366;47.988;7.856;2023-06-10T02:02:03;8.80;;;8.00;;
2712;SDS011;1366;47.988;7.856;2023-06-10T02:04:32;7.70;;;7.10;;
2712;SDS011;1366;47.988;7.856;2023-06-10T02:06:58;7.70;;;7.10;;
2712;SDS011;1366;47.988;7.856;2023-06-10T02:09:29;7.77;;;7.07;;
2712;SDS011;1366;47.988;7.856;2023-06-10T02:11:56;7.70;;;7.10;;
2712;SDS011;1366;47.988;7.856;2023-06-10T02:14:22;8.57;;;7.87;;
2712;SDS011;1366;47.988;7.856;2023-06-10T02:16:48;8.30;;;7.50;;
2712;SDS011;1366;47.988;7.856;2023-06-10T02:19:16;8.07;;;7.37;;
2712;SDS011;1366;47.988;7.856;2023-06-10T02:21:42;7.70;;;7.00;;
2712;SDS011;1366;47.988;7.856;2023-06-10T02:24:08;7.80;;;7.20;;
2712;SDS011;1366;47.988;7.856;2023-06-10T02:26:34;8.17;;;7.57;;
2712;SDS011;1366;47.988;7.856;2023-06-10T02:29:00;8.53;;;7.73;;
2712;SDS011;1366;47.988;7.856;2023-06-10T02:31:26;9.10;;;8.30;;
2712;SDS011;1366;47.988;7.856;2023-06-10T02:33:53;8.53;;;7.73;;
2712;SDS011;1366;47.988;7.856;2023-06-10T02:36:20;10.57;;;9.70;;
2712;SDS011;1366;47.988;7.856;2023-06-10T02:38:49;8.80;;;8.10;;
2712;SDS011;1366;47.988;7.856;2023-06-10T02:41:15;8.80;;;8.03;;
2712;SDS011;1366;47.988;7.856;2023-06-10T02:43:41;9.10;;;8.30;;
2712;SDS011;1366;47.988;7.856;2023-06-10T02:46:07;9.17;;;8.27;;
2712;SDS011;1366;47.988;7.856;2023-06-10T02:48:40;8.80;;;8.10;;
2712;SDS011;1366;47.988;7.856;2023-06-10T02:51:07;8.67;;;7.97;;
2712;SDS011;1366;47.988;7.856;2023-06-10T02:53:33;9.30;;;8.50;;
2712;SDS011;1366;47.988;7.856;2023-06-10T02:55:59;9.53;;;8.57;;
2712;SDS011;1366;47.988;7.856;2023-06-10T02:58:25;16.83;;;8.57;;
2712;SDS011;1366;47.988;7.856;2023-06-10T03:00:51;8.50;;;7.80;;
2712;SDS011;1366;47.988;7.856;2023-06-10T03:03:17;8.73;;;8.03;;
2712;SDS011;1366;47.988;7.856;2023-06-10T03:05:43;9.97;;;9.17;;
2712;SDS011;1366;47.988;7.856;2023-06-10T03:08:09;9.23;;;8.50;;
2712;SDS011;1366;47.988;7.856;2023-06-10T03:10:36;8.43;;;7.73;;
2712;SDS011;1366;47.988;7.856;2023-06-10T03:13:02;9.27;;;8.47;;
2712;SDS011;1366;47.988;7.856;2023-06-10T03:15:28;8.70;;;8.00;;
2712;SDS011;1366;47.988;7.856;2023-06-10T03:17:58;9.93;;;8.37;;
2712;SDS011;1366;47.988;7.856;2023-06-10T03:20:25;9.00;;;8.30;;
2712;SDS011;1366;47.988;7.856;2023-06-10T03:22:52;9.60;;;8.70;;
2712;SDS011;1366;47.988;7.856;2023-06-10T03:25:18;9.30;;;8.37;;
2712;SDS011;1366;47.988;7.856;2023-06-10T03:27:45;9.23;;;8.43;;
2712;SDS011;1366;47.988;7.856;2023-06-10T03:30:12;8.60;;;7.90;;
2712;SDS011;1366;47.988;7.856;2023-06-10T03:32:39;9.13;;;8.10;;
2712;SDS011;1366;47.988;7.856;2023-06-10T03:35:06;9.40;;;8.60;;
2712;SDS011;1366;47.988;7.856;2023-06-10T03:37:32;10.07;;;9.23;;
2712;SDS011;1366;47.988;7.856;2023-06-10T03:39:58;9.80;;;8.90;;
2712;SDS011;1366;47.988;7.856;2023-06-10T03:42:24;9.03;;;8.33;;
2712;SDS011;1366;47.988;7.856;2023-06-10T03:44:50;9.60;;;8.80;;
2712;SDS011;1366;47.988;7.856;2023-06-10T03:47:17;9.90;;;9.10;;
2712;SDS011;1366;47.988;7.856;2023-06-10T03:49:43;9.97;;;8.93;;
2712;SDS011;1366;47.988;7.856;2023-06-10T03:52:10;9.43;;;8.40;;
2712;SDS011;1366;47.988;7.856;2023-06-10T03:54:36;8.87;;;8.13;;
2712;SDS011;1366;47.988;7.856;2023-06-10T03:57:02;9.20;;;8.50;;
2712;SDS011;1366;47.988;7.856;2023-06-10T03:59:28;9.40;;;8.60;;
2712;SDS011;1366;47.988;7.856;2023-06-10T04:01:55;10.30;;;9.30;;
2712;SDS011;1366;47.988;7.856;2023-06-10T04:04:21;10.37;;;9.57;;
2712;SDS011;1366;47.988;7.856;2023-06-10T04:06:47;9.50;;;8.80;;
2712;SDS011;1366;47.988;7.856;2023-06-10T04:09:13;9.20;;;8.50;;
2712;SDS011;1366;47.988;7.856;2023-06-10T04:11:40;9.60;;;8.80;;
2712;SDS011;1366;47.988;7.856;2023-06-10T04:14:07;11.47;;;10.37;;
2712;SDS011;1366;47.988;7.856;2023-06-10T04:16:33;9.73;;;9.00;;
2712;SDS011;1366;47.988;7.856;2023-06-10T04:19:00;9.60;;;8.80;;
2712;SDS011;1366;47.988;7.856;2023-06-10T04:21:26;9.50;;;8.80;;
2712;SDS011;1366;47.988;7.856;2023-06-10T04:23:52;10.13;;;9.27;;
2712;SDS011;1366;47.988;7.856;2023-06-10T04:26:18;10.20;;;9.37;;
2712;SDS011;1366;47.988;7.856;2023-06-10T04:28:45;9.87;;;9.00;;
2712;SDS011;1366;47.988;7.856;2023-06-10T04:31:11;10.23;;;9.10;;
2712;SDS011;1366;47.988;7.856;2023-06-10T04:33:37;10.23;;;9.33;;
2712;SDS011;1366;47.988;7.856;2023-06-10T04:36:04;10.67;;;9.67;;
2712;SDS011;1366;47.988;7.856;2023-06-10T04:38:31;9.40;;;8.60;;
2712;SDS011;1366;47.988;7.856;2023-06-10T04:40:57;10.57;;;9.60;;
2712;SDS011;1366;47.988;7.856;2023-06-10T04:43:24;10.27;;;9.47;;
2712;SDS011;1366;47.988;7.856;2023-06-10T04:45:50;10.07;;;9.27;;
2712;SDS011;1366;47.988;7.856;2023-06-10T04:48:16;10.60;;;9.70;;
2712;SDS011;1366;47.988;7.856;2023-06-10T04:50:42;9.50;;;8.80;;
2712;SDS011;1366;47.988;7.856;2023-06-10T04:53:08;10.20;;;9.40;;
2712;SDS011;1366;47.988;7.856;2023-06-10T04:55:34;9.67;;;8.97;;
2712;SDS011;1366;47.988;7.856;2023-06-10T04:58:01;11.13;;;9.57;;
2712;SDS011;1366;47.988;7.856;2023-06-10T05:00:27;10.50;;;9.40;;
2712;SDS011;1366;47.988;7.856;2023-06-10T05:02:56;10.20;;;9.30;;
2712;SDS011;1366;47.988;7.856;2023-06-10T05:05:22;11.33;;;10.43;;
2712;SDS011;1366;47.988;7.856;2023-06-10T05:07:48;10.30;;;9.40;;
2712;SDS011;1366;47.988;7.856;2023-06-10T05:10:14;11.93;;;10.83;;
2712;SDS011;1366;47.988;7.856;2023-06-10T05:12:40;10.30;;;9.50;;
2712;SDS011;1366;47.988;7.856;2023-06-10T05:15:07;9.83;;;9.10;;
2712;SDS011;1366;47.988;7.856;2023-06-10T05:17:33;11.37;;;10.20;;
2712;SDS011;1366;47.988;7.856;2023-06-10T05:20:03;10.30;;;9.40;;
2712;SDS011;1366;47.988;7.856;2023-06-10T05:22:30;10.33;;;9.50;;
2712;SDS011;1366;47.988;7.856;2023-06-10T05:24:56;12.37;;;10.83;;
2712;SDS011;1366;47.988;7.856;2023-06-10T05:27:22;11.03;;;10.13;;
2712;SDS011;1366;47.988;7.856;2023-06-10T05:29:48;10.70;;;9.90;;
2712;SDS011;1366;47.988;7.856;2023-06-10T05:32:14;11.93;;;10.77;;
2712;SDS011;1366;47.988;7.856;2023-06-10T05:34:40;10.70;;;9.83;;
2712;SDS011;1366;47.988;7.856;2023-06-10T05:37:06;10.20;;;9.40;;
2712;SDS011;1366;47.988;7.856;2023-06-10T05:39:32;10.70;;;9.80;;
2712;SDS011;1366;47.988;7.856;2023-06-10T05:42:02;10.57;;;9.60;;
2712;SDS011;1366;47.988;7.856;2023-06-10T05:44:28;10.73;;;9.83;;
2712;SDS011;1366;47.988;7.856;2023-06-10T05:46:54;10.33;;;9.43;;
2712;SDS011;1366;47.988;7.856;2023-06-10T05:49:21;10.60;;;9.70;;
2712;SDS011;1366;47.988;7.856;2023-06-10T05:51:47;10.27;;;9.37;;
2712;SDS011;1366;47.988;7.856;2023-06-10T05:54:13;10.60;;;9.80;;
2712;SDS011;1366;47.988;7.856;2023-06-10T05:56:39;10.67;;;9.67;;
2712;SDS011;1366;47.988;7.856;2023-06-10T05:59:05;11.23;;;10.33;;
2712;SDS011;1366;47.988;7.856;2023-06-10T06:01:31;11.63;;;10.70;;
2712;SDS011;1366;47.988;7.856;2023-06-10T06:03:57;11.97;;;10.97;;
2712;SDS011;1366;47.988;7.856;2023-06-10T06:06:23;10.67;;;9.73;;
2712;SDS011;1366;47.988;7.856;2023-06-10T06:08:49;10.30;;;9.50;;
2712;SDS011;1366;47.988;7.856;2023-06-10T06:11:15;10.37;;;9.37;;
2712;SDS011;1366;47.988;7.856;2023-06-10T06:13:41;9.23;;;8.50;;
2712;SDS011;1366;47.988;7.856;2023-06-10T06:16:07;9.90;;;9.10;;
2712;SDS011;1366;47.988;7.856;2023-06-10T06:18:35;9.43;;;8.73;;
2712;SDS011;1366;47.988;7.856;2023-06-10T06:21:01;10.43;;;9.53;;
2712;SDS011;1366;47.988;7.856;2023-06-10T06:23:27;9.23;;;8.53;;
2712;SDS011;1366;47.988;7.856;2023-06-10T06:25:53;9.70;;;8.87;;
2712;SDS011;1366;47.988;7.856;2023-06-10T06:28:19;10.20;;;9.30;;
2712;SDS011;1366;47.988;7.856;2023-06-10T06:30:47;9.43;;;8.60;;
2712;SDS011;1366;47.988;7.856;2023-06-10T06:33:13;9.33;;;8.53;;
2712;SDS011;1366;47.988;7.856;2023-06-10T06:35:39;10.17;;;9.30;;
2712;SDS011;1366;47.988;7.856;2023-06-10T06:38:05;9.27;;;8.47;;
2712;SDS011;1366;47.988;7.856;2023-06-10T06:40:34;8.40;;;7.60;;
2712;SDS011;1366;47.988;7.856;2023-06-10T06:43:00;9.03;;;8.27;;
2712;SDS011;1366;47.988;7.856;2023-06-10T06:45:27;9.13;;;8.23;;
2712;SDS011;1366;47.988;7.856;2023-06-10T06:47:53;8.87;;;8.10;;
2712;SDS011;1366;47.988;7.856;2023-06-10T06:50:21;11.33;;;8.70;;
2712;SDS011;1366;47.988;7.856;2023-06-10T06:52:47;9.47;;;8.67;;
2712;SDS011;1366;47.988;7.856;2023-06-10T06:55:13;9.97;;;9.17;;
2712;SDS011;1366;47.988;7.856;2023-06-10T06:57:39;9.63;;;8.80;;
2712;SDS011;1366;47.988;7.856;2023-06-10T07:00:05;9.70;;;8.90;;
2712;SDS011;1366;47.988;7.856;2023-06-10T07:02:33;9.03;;;8.33;;
2712;SDS011;1366;47.988;7.856;2023-06-10T07:05:00;8.90;;;8.10;;
2712;SDS011;1366;47.988;7.856;2023-06-10T07:07:26;9.40;;;8.60;;
2712;SDS011;1366;47.988;7.856;2023-06-10T07:09:52;9.67;;;8.80;;
2712;SDS011;1366;47.988;7.856;2023-06-10T07:12:18;9.00;;;8.27;;
2712;SDS011;1366;47.988;7.856;2023-06-10T07:14:44;9.90;;;9.10;;
2712;SDS011;1366;47.988;7.856;2023-06-10T07:17:10;9.83;;;9.03;;
2712;SDS011;1366;47.988;7.856;2023-06-10T07:19:36;10.10;;;9.30;;
2712;SDS011;1366;47.988;7.856;2023-06-10T07:22:02;9.50;;;8.70;;
2712;SDS011;1366;47.988;7.856;2023-06-10T07:24:28;9.53;;;8.83;;
2712;SDS011;1366;47.988;7.856;2023-06-10T07:26:54;9.17;;;8.47;;
2712;SDS011;1366;47.988;7.856;2023-06-10T07:29:20;10.30;;;9.30;;
2712;SDS011;1366;47.988;7.856;2023-06-10T07:31:46;9.30;;;8.60;;
2712;SDS011;1366;47.988;7.856;2023-06-10T07:34:12;10.50;;;9.60;;
2712;SDS011;1366;47.988;7.856;2023-06-10T07:36:38;10.03;;;9.23;;
2712;SDS011;1366;47.988;7.856;2023-06-10T07:39:04;10.60;;;9.60;;
2712;SDS011;1366;47.988;7.856;2023-06-10T07:41:32;10.00;;;9.10;;
2712;SDS011;1366;47.988;7.856;2023-06-10T07:43:58;9.10;;;8.40;;
2712;SDS011;1366;47.988;7.856;2023-06-10T07:46:24;9.07;;;8.37;;
2712;SDS011;1366;47.988;7.856;2023-06-10T07:48:52;9.17;;;8.37;;
2712;SDS011;1366;47.988;7.856;2023-06-10T07:51:18;9.50;;;8.70;;
2712;SDS011;1366;47.988;7.856;2023-06-10T07:53:44;8.30;;;7.70;;
2712;SDS011;1366;47.988;7.856;2023-06-10T07:56:10;9.13;;;8.43;;
2712;SDS011;1366;47.988;7.856;2023-06-10T07:58:36;9.90;;;9.10;;
2712;SDS011;1366;47.988;7.856;2023-06-10T08:01:02;9.90;;;9.00;;
2712;SDS011;1366;47.988;7.856;2023-06-10T08:03:28;8.63;;;7.93;;
2712;SDS011;1366;47.988;7.856;2023-06-10T08:05:54;9.27;;;8.57;;
2712;SDS011;1366;47.988;7.856;2023-06-10T08:08:20;9.03;;;8.10;;
2712;SDS011;1366;47.988;7.856;2023-06-10T08:10:46;10.53;;;9.53;;
2712;SDS011;1366;47.988;7.856;2023-06-10T08:13:14;9.80;;;8.90;;
2712;SDS011;1366;47.988;7.856;2023-06-10T08:15:40;9.57;;;8.70;;
2712;SDS011;1366;47.988;7.856;2023-06-10T08:18:06;11.00;;;10.00;;
2712;SDS011;1366;47.988;7.856;2023-06-10T08:20:32;8.77;;;7.87;;
2712;SDS011;1366;47.988;7.856;2023-06-10T08:22:58;8.50;;;7.90;;
2712;SDS011;1366;47.988;7.856;2023-06-10T08:25:24;9.93;;;9.07;;
2712;SDS011;1366;47.988;7.856;2023-06-10T08:27:50;9.27;;;8.50;;
2712;SDS011;1366;47.988;7.856;2023-06-10T08:30:17;10.77;;;9.70;;
2712;SDS011;1366;47.988;7.856;2023-06-10T08:32:43;10.03;;;9.07;;
2712;SDS011;1366;47.988;7.856;2023-06-10T08:35:09;10.10;;;8.53;;
2712;SDS011;1366;47.988;7.856;2023-06-10T08:37:35;9.70;;;9.00;;
2712;SDS011;1366;47.988;7.856;2023-06-10T08:40:02;10.20;;;9.40;;
2712;SDS011;1366;47.988;7.856;2023-06-10T08:42:38;9.90;;;9.10;;
2712;SDS011;1366;47.988;7.856;2023-06-10T08:45:05;10.30;;;9.50;;
2712;SDS011;1366;47.988;7.856;2023-06-10T08:47:33;8.57;;;7.97;;
2712;SDS011;1366;47.988;7.856;2023-06-10T08:50:04;9.30;;;8.60;;
2712;SDS011;1366;47.988;7.856;2023-06-10T08:52:36;9.30;;;8.47;;
2712;SDS011;1366;47.988;7.856;2023-06-10T08:55:03;10.20;;;9.20;;
2712;SDS011;1366;47.988;7.856;2023-06-10T08:57:30;9.83;;;9.03;;
2712;SDS011;1366;47.988;7.856;2023-06-10T08:59:56;10.10;;;9.03;;
2712;SDS011;1366;47.988;7.856;2023-06-10T09:02:23;9.60;;;8.70;;
2712;SDS011;1366;47.988;7.856;2023-06-10T09:04:49;9.60;;;8.80;;
2712;SDS011;1366;47.988;7.856;2023-06-10T09:07:16;10.30;;;9.53;;
2712;SDS011;1366;47.988;7.856;2023-06-10T09:09:43;10.20;;;9.50;;
2712;SDS011;1366;47.988;7.856;2023-06-10T09:12:09;10.18;;;9.32;;
2712;SDS011;1366;47.988;7.856;2023-06-10T09:14:36;10.33;;;9.43;;
2712;SDS011;1366;47.988;7.856;2023-06-10T09:17:02;10.87;;;9.90;;
2712;SDS011;1366;47.988;7.856;2023-06-10T09:19:29;9.70;;;8.90;;
2712;SDS011;1366;47.988;7.856;2023-06-10T09:21:55;9.83;;;9.00;;
2712;SDS011;1366;47.988;7.856;2023-06-10T09:24:25;11.23;;;10.33;;
2712;SDS011;1366;47.988;7.856;2023-06-10T09:27:01;11.33;;;10.37;;
2712;SDS011;1366;47.988;7.856;2023-06-10T09:29:27;10.70;;;9.80;;
2712;SDS011;1366;47.988;7.856;2023-06-10T09:31:53;10.93;;;10.13;;
2712;SDS011;1366;47.988;7.856;2023-06-10T09:34:24;11.87;;;9.90;;
2712;SDS011;1366;47.988;7.856;2023-06-10T09:36:50;11.57;;;10.67;;
2712;SDS011;1366;47.988;7.856;2023-06-10T09:39:17;11.13;;;10.23;;
2712;SDS011;1366;47.988;7.856;2023-06-10T09:41:43;10.60;;;9.80;;
2712;SDS011;1366;47.988;7.856;2023-06-10T09:46:39;11.40;;;10.50;;
2712;SDS011;1366;47.988;7.856;2023-06-10T09:49:06;11.07;;;10.07;;
2712;SDS011;1366;47.988;7.856;2023-06-10T09:51:32;11.83;;;10.93;;
2712;SDS011;1366;47.988;7.856;2023-06-10T09:53:58;11.20;;;10.30;;
2712;SDS011;1366;47.988;7.856;2023-06-10T09:56:34;11.63;;;10.57;;
2712;SDS011;1366;47.988;7.856;2023-06-10T09:59:00;11.80;;;10.80;;
2712;SDS011;1366;47.988;7.856;2023-06-10T10:01:26;11.60;;;10.60;;
2712;SDS011;1366;47.988;7.856;2023-06-10T10:03:52;11.40;;;10.50;;
2712;SDS011;1366;47.988;7.856;2023-06-10T10:06:19;11.13;;;10.20;;
2712;SDS011;1366;47.988;7.856;2023-06-10T10:08:47;11.73;;;10.83;;
2712;SDS011;1366;47.988;7.856;2023-06-10T10:11:17;14.03;;;10.80;;
2712;SDS011;1366;47.988;7.856;2023-06-10T10:13:45;11.40;;;10.40;;
2712;SDS011;1366;47.988;7.856;2023-06-10T10:16:11;13.33;;;12.23;;
2712;SDS011;1366;47.988;7.856;2023-06-10T10:18:41;12.90;;;11.90;;
2712;SDS011;1366;47.988;7.856;2023-06-10T10:21:11;13.23;;;12.13;;
2712;SDS011;1366;47.988;7.856;2023-06-10T10:23:44;13.07;;;12.07;;
2712;SDS011;1366;47.988;7.856;2023-06-10T10:26:13;13.13;;;12.00;;
2712;SDS011;1366;47.988;7.856;2023-06-10T10:28:46;13.60;;;12.37;;
2712;SDS011;1366;47.988;7.856;2023-06-10T10:31:15;12.57;;;11.60;;
2712;SDS011;1366;47.988;7.856;2023-06-10T10:36:09;13.53;;;12.43;;
2712;SDS011;1366;47.988;7.856;2023-06-10T10:38:35;14.90;;;13.60;;
2712;SDS011;1366;47.988;7.856;2023-06-10T10:41:01;14.47;;;13.27;;
2712;SDS011;1366;47.988;7.856;2023-06-10T10:43:28;14.20;;;12.57;;
2712;SDS011;1366;47.988;7.856;2023-06-10T10:45:59;12.60;;;11.57;;
2712;SDS011;1366;47.988;7.856;2023-06-10T10:48:25;13.13;;;11.93;;
2712;SDS011;1366;47.988;7.856;2023-06-10T10:50:57;13.13;;;12.13;;
2712;SDS011;1366;47.988;7.856;2023-06-10T10:53:24;15.07;;;13.47;;
2712;SDS011;1366;47.988;7.856;2023-06-10T10:56:06;13.70;;;12.70;;
2712;SDS011;1366;47.988;7.856;2023-06-10T10:58:33;13.27;;;12.10;;
2712;SDS011;1366;47.988;7.856;2023-06-10T11:00:59;13.60;;;12.60;;
2712;SDS011;1366;47.988;7.856;2023-06-10T11:03:28;13.70;;;12.40;;
2712;SDS011;1366;47.988;7.856;2023-06-10T11:05:56;13.53;;;12.43;;
2712;SDS011;1366;47.988;7.856;2023-06-10T11:10:55;14.20;;;13.20;;
2712;SDS011;1366;47.988;7.856;2023-06-10T11:13:21;12.90;;;11.90;;
2712;SDS011;1366;47.988;7.856;2023-06-10T11:15:48;12.73;;;11.73;;
2712;SDS011;1366;47.988;7.856;2023-06-10T11:18:24;13.40;;;12.40;;
2712;SDS011;1366;47.988;7.856;2023-06-10T11:23:30;12.53;;;11.63;;
2712;SDS011;1366;47.988;7.856;2023-06-10T11:28:38;12.37;;;11.47;;
2712;SDS011;1366;47.988;7.856;2023-06-10T11:31:04;13.63;;;12.63;;
2712;SDS011;1366;47.988;7.856;2023-06-10T11:33:30;13.80;;;12.60;;
2712;SDS011;1366;47.988;7.856;2023-06-10T11:35:57;11.77;;;10.80;;
2712;SDS011;1366;47.988;7.856;2023-06-10T11:38:23;12.30;;;11.40;;
2712;SDS011;1366;47.988;7.856;2023-06-10T11:40:50;13.27;;;12.20;;
2712;SDS011;1366;47.988;7.856;2023-06-10T11:43:16;12.77;;;11.87;;
2712;SDS011;1366;47.988;7.856;2023-06-10T11:45:43;11.90;;;11.03;;
2712;SDS011;1366;47.988;7.856;2023-06-10T11:48:09;13.30;;;11.93;;
2712;SDS011;1366;47.988;7.856;2023-06-10T11:50:35;12.07;;;11.20;;
2712;SDS011;1366;47.988;7.856;2023-06-10T11:53:02;12.90;;;11.67;;
2712;SDS011;1366;47.988;7.856;2023-06-10T11:55:44;12.30;;;11.30;;
2712;SDS011;1366;47.988;7.856;2023-06-10T11:58:21;13.30;;;12.00;;
2712;SDS011;1366;47.988;7.856;2023-06-10T12:00:56;12.03;;;11.10;;
2712;SDS011;1366;47.988;7.856;2023-06-10T12:03:23;11.67;;;10.70;;
2712;SDS011;1366;47.988;7.856;2023-06-10T12:06:07;13.10;;;10.43;;
2712;SDS011;1366;47.988;7.856;2023-06-10T12:08:33;11.97;;;10.97;;
2712;SDS011;1366;47.988;7.856;2023-06-10T12:11:06;12.53;;;11.63;;
2712;SDS011;1366;47.988;7.856;2023-06-10T12:13:32;10.70;;;10.00;;
2712;SDS011;1366;47.988;7.856;2023-06-10T12:16:11;11.47;;;10.67;;
2712;SDS011;1366;47.988;7.856;2023-06-10T12:18:37;11.73;;;10.93;;
2712;SDS011;1366;47.988;7.856;2023-06-10T12:21:03;11.07;;;10.15;;
2712;SDS011;1366;47.988;7.856;2023-06-10T12:23:40;11.10;;;10.30;;
2712;SDS011;1366;47.988;7.856;2023-06-10T12:26:07;11.27;;;10.40;;
2712;SDS011;1366;47.988;7.856;2023-06-10T12:28:33;11.13;;;10.33;;
2712;SDS011;1366;47.988;7.856;2023-06-10T12:31:06;11.37;;;10.40;;
2712;SDS011;1366;47.988;7.856;2023-06-10T12:33:35;10.90;;;10.20;;
2712;SDS011;1366;47.988;7.856;2023-06-10T12:36:01;10.70;;;10.00;;
2712;SDS011;1366;47.988;7.856;2023-06-10T12:38:27;11.00;;;10.17;;
2712;SDS011;1366;47.988;7.856;2023-06-10T12:40:54;12.30;;;11.40;;
2712;SDS011;1366;47.988;7.856;2023-06-10T12:43:22;11.67;;;10.80;;
2712;SDS011;1366;47.988;7.856;2023-06-10T12:45:48;12.20;;;11.20;;
2712;SDS011;1366;47.988;7.856;2023-06-10T12:48:19;15.43;;;10.87;;
2712;SDS011;1366;47.988;7.856;2023-06-10T12:50:50;14.77;;;13.00;;
2712;SDS011;1366;47.988;7.856;2023-06-10T12:53:16;14.03;;;12.87;;
2712;SDS011;1366;47.988;7.856;2023-06-10T12:55:42;13.47;;;12.27;;
2712;SDS011;1366;47.988;7.856;2023-06-10T12:58:10;14.23;;;12.90;;
2712;SDS011;1366;47.988;7.856;2023-06-10T13:00:36;12.53;;;11.27;;
2712;SDS011;1366;47.988;7.856;2023-06-10T13:03:02;13.27;;;11.98;;
2712;SDS011;1366;47.988;7.856;2023-06-10T13:05:30;13.97;;;12.60;;
2712;SDS011;1366;47.988;7.856;2023-06-10T13:07:57;14.30;;;13.13;;
2712;SDS011;1366;47.988;7.856;2023-06-10T13:10:23;12.23;;;11.23;;
2712;SDS011;1366;47.988;7.856;2023-06-10T13:12:49;14.10;;;12.97;;
2712;SDS011;1366;47.988;7.856;2023-06-10T13:15:16;13.97;;;12.77;;
2712;SDS011;1366;47.988;7.856;2023-06-10T13:17:43;13.40;;;12.17;;
2712;SDS011;1366;47.988;7.856;2023-06-10T13:20:10;14.10;;;12.80;;
2712;SDS011;1366;47.988;7.856;2023-06-10T13:22:36;13.57;;;12.37;;
2712;SDS011;1366;47.988;7.856;2023-06-10T13:25:03;12.50;;;11.40;;
2712;SDS011;1366;47.988;7.856;2023-06-10T13:27:29;14.10;;;13.00;;
2712;SDS011;1366;47.988;7.856;2023-06-10T13:29:55;14.00;;;12.93;;
2712;SDS011;1366;47.988;7.856;2023-06-10T13:32:21;13.40;;;12.13;;
2712;SDS011;1366;47.988;7.856;2023-06-10T13:34:48;14.10;;;12.87;;
2712;SDS011;1366;47.988;7.856;2023-06-10T13:37:18;14.03;;;12.80;;
2712;SDS011;1366;47.988;7.856;2023-06-10T13:39:44;12.90;;;11.80;;
2712;SDS011;1366;47.988;7.856;2023-06-10T13:42:16;14.20;;;13.10;;
2712;SDS011;1366;47.988;7.856;2023-06-10T13:44:42;13.23;;;12.13;;
2712;SDS011;1366;47.988;7.856;2023-06-10T13:47:08;12.00;;;11.13;;
2712;SDS011;1366;47.988;7.856;2023-06-10T13:49:34;13.10;;;11.87;;
2712;SDS011;1366;47.988;7.856;2023-06-10T13:52:00;12.90;;;11.70;;
2712;SDS011;1366;47.988;7.856;2023-06-10T13:54:27;13.17;;;12.07;;
2712;SDS011;1366;47.988;7.856;2023-06-10T13:56:53;12.67;;;11.43;;
2712;SDS011;1366;47.988;7.856;2023-06-10T13:59:19;16.10;;;11.23;;
2712;SDS011;1366;47.988;7.856;2023-06-10T14:01:46;13.57;;;12.47;;
2712;SDS011;1366;47.988;7.856;2023-06-10T14:04:12;14.00;;;12.83;;
2712;SDS011;1366;47.988;7.856;2023-06-10T14:06:38;12.90;;;11.90;;
2712;SDS011;1366;47.988;7.856;2023-06-10T14:09:05;12.67;;;11.57;;
2712;SDS011;1366;47.988;7.856;2023-06-10T14:11:31;10.90;;;10.00;;
2712;SDS011;1366;47.988;7.856;2023-06-10T14:13:57;9.83;;;9.13;;
2712;SDS011;1366;47.988;7.856;2023-06-10T14:16:25;10.00;;;9.20;;
2712;SDS011;1366;47.988;7.856;2023-06-10T14:18:51;10.90;;;10.20;;
2712;SDS011;1366;47.988;7.856;2023-06-10T14:21:18;10.30;;;9.50;;
2712;SDS011;1366;47.988;7.856;2023-06-10T14:23:44;10.17;;;9.37;;
2712;SDS011;1366;47.988;7.856;2023-06-10T14:26:10;10.47;;;9.57;;
2712;SDS011;1366;47.988;7.856;2023-06-10T14:28:36;10.00;;;9.20;;
2712;SDS011;1366;47.988;7.856;2023-06-10T14:31:03;10.20;;;9.50;;
2712;SDS011;1366;47.988;7.856;2023-06-10T14:33:29;10.23;;;9.43;;
2712;SDS011;1366;47.988;7.856;2023-06-10T14:35:56;10.57;;;9.77;;
2712;SDS011;1366;47.988;7.856;2023-06-10T14:38:22;9.63;;;8.90;;
2712;SDS011;1366;47.988;7.856;2023-06-10T14:40:48;9.10;;;8.40;;
2712;SDS011;1366;47.988;7.856;2023-06-10T14:43:14;10.27;;;9.40;;
2712;SDS011;1366;47.988;7.856;2023-06-10T14:45:40;10.33;;;9.53;;
2712;SDS011;1366;47.988;7.856;2023-06-10T14:48:07;9.50;;;8.80;;
2712;SDS011;1366;47.988;7.856;2023-06-10T14:50:36;9.50;;;8.80;;
2712;SDS011;1366;47.988;7.856;2023-06-10T14:53:03;9.63;;;8.93;;
2712;SDS011;1366;47.988;7.856;2023-06-10T14:55:29;9.53;;;8.80;;
2712;SDS011;1366;47.988;7.856;2023-06-10T14:57:55;10.13;;;9.20;;
2712;SDS011;1366;47.988;7.856;2023-06-10T15:00:22;9.27;;;8.57;;
2712;SDS011;1366;47.988;7.856;2023-06-10T15:02:49;9.40;;;8.70;;
2712;SDS011;1366;47.988;7.856;2023-06-10T15:05:15;8.73;;;8.13;;
2712;SDS011;1366;47.988;7.856;2023-06-10T15:07:42;9.10;;;8.50;;
2712;SDS011;1366;47.988;7.856;2023-06-10T15:10:08;8.67;;;8.07;;
2712;SDS011;1366;47.988;7.856;2023-06-10T15:12:35;8.87;;;8.20;;
2712;SDS011;1366;47.988;7.856;2023-06-10T15:15:02;7.47;;;7.00;;
2712;SDS011;1366;47.988;7.856;2023-06-10T15:17:28;7.90;;;7.40;;